Fergus Falls, MN

3:40 AM CST on December 07, 2019 (GMT -0600)
Fergus Falls Municipal-Mickelson

Weather History for KFFM - October, 2019

Change the Weather History Date:

Saturday, October 19, 2019

  Actual Average Record
Temperature  
Mean Temperature 48 °F -  
Max Temperature 60 °F 53 °F 87 °F (2003)
Min Temperature 37 °F 31 °F 12 °F (1972)
Degree Days  
Heating Degree Days 16    
Moisture  
Dew Point 37 °F    
Average Humidity 71    
Maximum Humidity 93    
Minimum Humidity 39    
Precipitation  
Precipitation 0.00 in - - ()
Sea Level Pressure  
Sea Level Pressure 29.63 in    
Wind  
Wind Speed 6 mph ()    
Max Wind Speed 21 mph    
Max Gust Speed 25 mph    
Visibility 10.0 miles    
Events      
Averages and records for this station are not official NWS values.
T = Trace of Precipitation, MM = Missing Value Source: Averaged Metar Reports

Daily Weather History Graph

Daily Weather History Graph

Search for Another Location

Airport or City:

Astronomy

Oct. 19, 2019 Rise Set
Actual Time 7:47 AM CDT 6:31 PM CDT
Civil Twilight 7:16 AM CDT 7:01 PM CDT
Nautical Twilight 6:41 AM CDT 7:36 PM CDT
Astronomical Twilight 6:06 AM CDT 8:11 PM CDT
Moon 10:26 PM CDT (10/19) 1:34 PM CDT (10/19)
Length of Visible Light 11h 45m
Length of Day
10h 44m
Waning Gibbous, 69% of the Moon is Illuminated
Oct 19
Waning Gibbous
Oct 21
Last Quarter
Oct 27
New
Nov 4
First Quarter
Nov 12
Full

Hourly Weather History & Observations

Time (CDT) Temp. Windchill Dew Point Humidity Pressure Visibility Wind Dir Wind Speed Gust Speed Precip Events Conditions
12:15 AM 48.2 °F - 42.8 °F 82% 29.54 in 10.0 mi WNW 10.4 mph - N/A   Clear
12:19 AM 48.2 °F - 42.8 °F 82% 29.54 in 10.0 mi West 10.4 mph - N/A   Clear
12:37 AM 46.4 °F 42.4 °F 42.8 °F 87% 29.54 in 10.0 mi WNW 8.1 mph - N/A   Clear
12:56 AM 46.4 °F 43.5 °F 41.0 °F 81% 29.55 in 10.0 mi West 5.8 mph - N/A   Clear
1:15 AM 44.6 °F 41.4 °F 39.2 °F 81% 29.56 in 10.0 mi West 5.8 mph - N/A   Clear
1:16 AM 44.6 °F 41.4 °F 39.2 °F 81% 29.56 in 10.0 mi West 5.8 mph - N/A   Clear
1:35 AM 42.8 °F 41.1 °F 39.2 °F 87% 29.55 in 10.0 mi West 3.5 mph - N/A   Clear
1:36 AM 42.8 °F 40.1 °F 39.2 °F 87% 29.56 in 10.0 mi West 4.6 mph - N/A   Clear
1:58 AM 44.6 °F 43.1 °F 39.2 °F 81% 29.56 in 10.0 mi WSW 3.5 mph - N/A   Mostly Cloudy
2:16 AM 42.8 °F - 39.2 °F 87% 29.57 in 10.0 mi Calm Calm - N/A   Mostly Cloudy
2:35 AM 44.6 °F 43.1 °F 39.2 °F 81% 29.58 in 10.0 mi SSW 3.5 mph - N/A   Scattered Clouds
2:55 AM 42.8 °F 39.3 °F 39.2 °F 87% 29.59 in 10.0 mi SW 5.8 mph - N/A   Clear
2:56 AM 42.8 °F 39.3 °F 39.2 °F 87% 29.59 in 10.0 mi SW 5.8 mph - N/A   Clear
3:15 AM 42.8 °F 38.6 °F 39.2 °F 87% 29.59 in 10.0 mi WSW 6.9 mph - N/A   Clear
3:19 AM 42.8 °F 39.3 °F 39.2 °F 87% 29.59 in 10.0 mi WSW 5.8 mph - N/A   Clear
3:38 AM 42.8 °F 40.1 °F 37.4 °F 81% 29.60 in 10.0 mi SSW 4.6 mph - N/A   Clear
3:55 AM 42.8 °F 41.1 °F 37.4 °F 81% 29.60 in 10.0 mi SSW 3.5 mph - N/A   Clear
4:16 AM 42.8 °F 41.1 °F 37.4 °F 81% 29.60 in 10.0 mi WSW 3.5 mph - N/A   Clear
4:36 AM 41.0 °F - 39.2 °F 93% 29.59 in 10.0 mi Calm Calm - N/A   Clear
4:57 AM 39.2 °F 37.0 °F 37.4 °F 93% 29.59 in 10.0 mi SSW 3.5 mph - N/A   Clear
5:15 AM 39.2 °F 35.9 °F 37.4 °F 93% 29.60 in 10.0 mi SW 4.6 mph - N/A   Clear
5:16 AM 39.2 °F 35.9 °F 37.4 °F 93% 29.60 in 10.0 mi SW 4.6 mph - N/A   Clear
5:35 AM 39.2 °F 37.0 °F 37.4 °F 93% 29.61 in 10.0 mi SSE 3.5 mph - N/A   Clear
5:36 AM 39.2 °F 37.0 °F 37.4 °F 93% 29.61 in 10.0 mi South 3.5 mph - N/A   Clear
5:55 AM 41.0 °F 39.0 °F 37.4 °F 87% 29.61 in 10.0 mi South 3.5 mph - N/A   Clear
6:15 AM 39.2 °F 37.0 °F 37.4 °F 93% 29.62 in 10.0 mi South 3.5 mph - N/A   Clear
6:16 AM 39.2 °F 37.0 °F 37.4 °F 93% 29.62 in 10.0 mi South 3.5 mph - N/A   Clear
6:35 AM 39.2 °F 35.9 °F 37.4 °F 93% 29.62 in 10.0 mi SSE 4.6 mph - N/A   Clear
6:36 AM 39.2 °F 35.9 °F 37.4 °F 93% 29.62 in 10.0 mi South 4.6 mph - N/A   Clear
6:55 AM 39.2 °F 35.9 °F 37.4 °F 93% 29.62 in 10.0 mi South 4.6 mph - N/A   Clear
7:03 AM 39.2 °F 35.9 °F 37.4 °F 93% 29.62 in 10.0 mi South 4.6 mph - N/A   Clear
7:08 AM 39.2 °F 35.9 °F 37.4 °F 93% 29.63 in 10.0 mi South 4.6 mph - N/A   Clear
7:24 AM 37.4 °F 34.9 °F 35.6 °F 93% 29.63 in 10.0 mi SSW 3.5 mph - N/A   Clear
7:25 AM 37.4 °F 33.8 °F 35.6 °F 93% 29.63 in 10.0 mi South 4.6 mph - N/A   Clear
7:36 AM 37.4 °F 33.8 °F 35.6 °F 93% 29.63 in 10.0 mi SSW 4.6 mph - N/A   Clear
7:56 AM 37.4 °F - 35.6 °F 93% 29.64 in 10.0 mi Calm Calm - N/A   Clear
8:15 AM 37.4 °F 33.8 °F 35.6 °F 93% 29.64 in 10.0 mi South 4.6 mph - N/A   Clear
8:35 AM 37.4 °F 33.8 °F 35.6 °F 93% 29.65 in 10.0 mi SSW 4.6 mph - N/A   Clear
8:56 AM 39.2 °F 35.9 °F 37.4 °F 93% 29.66 in 10.0 mi SSW 4.6 mph - N/A   Clear
9:15 AM 42.8 °F 41.1 °F 37.4 °F 81% 29.66 in 10.0 mi SW 3.5 mph - N/A   Clear
9:16 AM 42.8 °F 41.1 °F 37.4 °F 81% 29.66 in 10.0 mi SW 3.5 mph - N/A   Clear
9:35 AM 44.6 °F 42.2 °F 37.4 °F 76% 29.66 in 10.0 mi SW 4.6 mph - N/A   Clear
9:36 AM 44.6 °F 42.2 °F 37.4 °F 76% 29.66 in 10.0 mi SW 4.6 mph - N/A   Clear
9:55 AM 46.4 °F 44.3 °F 39.2 °F 76% 29.66 in 10.0 mi SW 4.6 mph - N/A   Clear
9:59 AM 46.4 °F 43.5 °F 39.2 °F 76% 29.66 in 10.0 mi WSW 5.8 mph - N/A   Clear
10:16 AM 46.4 °F 42.4 °F 37.4 °F 71% 29.67 in 10.0 mi WSW 8.1 mph - N/A   Clear
10:36 AM 48.2 °F - 39.2 °F 71% 29.67 in 10.0 mi WSW 6.9 mph - N/A   Clear
10:55 AM 48.2 °F - 39.2 °F 71% 29.67 in 10.0 mi West 6.9 mph - N/A   Clear
11:15 AM 51.8 °F - 39.2 °F 62% 29.67 in 10.0 mi West 8.1 mph - N/A   Clear
11:19 AM 51.8 °F - 39.2 °F 62% 29.67 in 10.0 mi WSW 8.1 mph - N/A   Clear
11:38 AM 53.6 °F - 39.2 °F 58% 29.66 in 10.0 mi West 8.1 mph - N/A   Clear
11:55 AM 53.6 °F - 37.4 °F 54% 29.65 in 10.0 mi SW 5.8 mph - N/A   Clear
12:15 PM 55.4 °F - 37.4 °F 51% 29.65 in 10.0 mi WSW 9.2 mph - N/A   Clear
12:16 PM 55.4 °F - 37.4 °F 51% 29.65 in 10.0 mi WSW 9.2 mph - N/A   Clear
12:35 PM 55.4 °F - 37.4 °F 51% 29.65 in 10.0 mi WSW 13.8 mph 17.3 mph N/A   Clear
12:58 PM 57.2 °F - 37.4 °F 48% 29.64 in 10.0 mi West 12.7 mph - N/A   Clear
1:17 PM 57.2 °F - 37.4 °F 48% 29.64 in 10.0 mi West 13.8 mph 18.4 mph N/A   Clear
1:55 PM 59.0 °F - 37.4 °F 45% 29.63 in 10.0 mi West 16.1 mph 23.0 mph N/A   Clear
1:56 PM 59.0 °F - 37.4 °F 45% 29.63 in 10.0 mi West 16.1 mph 23.0 mph N/A   Clear
2:15 PM 57.2 °F - 37.4 °F 48% 29.62 in 10.0 mi West 15.0 mph 21.9 mph N/A   Clear
2:20 PM 57.2 °F - 37.4 °F 48% 29.62 in 10.0 mi West 18.4 mph 25.3 mph N/A   Clear
2:37 PM 57.2 °F - 37.4 °F 48% 29.62 in 10.0 mi West 13.8 mph 23.0 mph N/A   Clear
2:55 PM 59.0 °F - 35.6 °F 42% 29.62 in 10.0 mi West 20.7 mph 25.3 mph N/A   Clear
3:15 PM 59.0 °F - 35.6 °F 42% 29.62 in 10.0 mi West 16.1 mph 21.9 mph N/A   Clear
3:16 PM 59.0 °F - 35.6 °F 42% 29.62 in 10.0 mi West 16.1 mph 21.9 mph N/A   Clear
3:35 PM 59.0 °F - 35.6 °F 42% 29.62 in 10.0 mi West 12.7 mph - N/A   Clear
3:36 PM 59.0 °F - 35.6 °F 42% 29.62 in 10.0 mi West 12.7 mph - N/A   Clear
3:59 PM 59.0 °F - 35.6 °F 42% 29.61 in 10.0 mi West 12.7 mph 19.6 mph N/A   Clear
4:16 PM 60.8 °F - 35.6 °F 39% 29.61 in 10.0 mi West 11.5 mph - N/A   Clear
4:35 PM 59.0 °F - 33.8 °F 39% 29.61 in 10.0 mi West 17.3 mph 21.9 mph N/A   Clear
4:55 PM 59.0 °F - 35.6 °F 42% 29.61 in 10.0 mi West 13.8 mph - N/A   Clear
4:56 PM 59.0 °F - 35.6 °F 42% 29.61 in 10.0 mi West 12.7 mph - N/A   Clear
5:15 PM 59.0 °F - 33.8 °F 39% 29.62 in 10.0 mi West 16.1 mph - N/A   Clear
5:20 PM 57.2 °F - 33.8 °F 41% 29.62 in 10.0 mi West 13.8 mph - N/A   Clear
5:38 PM 57.2 °F - 35.6 °F 44% 29.62 in 10.0 mi West 9.2 mph 16.1 mph N/A   Clear
5:55 PM 55.4 °F - 35.6 °F 47% 29.63 in 10.0 mi WNW 8.1 mph - N/A   Clear
6:15 PM 53.6 °F - 35.6 °F 51% 29.63 in 10.0 mi West 4.6 mph - N/A   Clear
6:35 PM 51.8 °F - 35.6 °F 54% 29.64 in 10.0 mi West 4.6 mph - N/A   Clear
6:58 PM 50.0 °F - 35.6 °F 58% 29.65 in 10.0 mi West 3.5 mph - N/A   Clear
7:17 PM 48.2 °F - 35.6 °F 62% 29.66 in 10.0 mi Calm Calm - N/A   Scattered Clouds
7:36 PM 48.2 °F - 35.6 °F 62% 29.66 in 10.0 mi Calm Calm - N/A   Clear
7:55 PM 48.2 °F - 35.6 °F 62% 29.67 in 10.0 mi Calm Calm - N/A   Clear
7:56 PM 48.2 °F - 35.6 °F 62% 29.67 in 10.0 mi Calm Calm - N/A   Clear
8:15 PM 48.2 °F - 35.6 °F 62% 29.67 in 10.0 mi Calm Calm - N/A   Clear
8:37 PM 46.4 °F - 35.6 °F 66% 29.67 in 10.0 mi Calm Calm - N/A   Clear
8:56 PM 46.4 °F - 35.6 °F 66% 29.67 in 10.0 mi Calm Calm - N/A   Clear
9:15 PM 44.6 °F 43.1 °F 35.6 °F 71% 29.68 in 10.0 mi South 3.5 mph - N/A   Clear
9:16 PM 44.6 °F - 35.6 °F 71% 29.68 in 10.0 mi Calm Calm - N/A   Clear
9:35 PM 44.6 °F - 35.6 °F 71% 29.68 in 10.0 mi Calm Calm - N/A   Clear
9:36 PM 44.6 °F - 35.6 °F 71% 29.68 in 10.0 mi Calm Calm - N/A   Clear
9:59 PM 44.6 °F - 35.6 °F 71% 29.68 in 10.0 mi Calm Calm - N/A   Clear
10:16 PM 41.0 °F 37.1 °F 35.6 °F 81% 29.68 in 10.0 mi SSE 5.8 mph - N/A   Clear
10:35 PM 42.8 °F 40.1 °F 35.6 °F 76% 29.68 in 10.0 mi SSE 4.6 mph - N/A   Clear
10:36 PM 42.8 °F 40.1 °F 35.6 °F 76% 29.68 in 10.0 mi SSE 4.6 mph - N/A   Clear
10:55 PM 42.8 °F 40.1 °F 33.8 °F 70% 29.69 in 10.0 mi SSE 4.6 mph - N/A   Clear
10:56 PM 42.8 °F 40.1 °F 33.8 °F 70% 29.69 in 10.0 mi SSE 4.6 mph - N/A   Clear
11:18 PM 42.8 °F 39.3 °F 33.8 °F 70% 29.69 in 10.0 mi SSE 5.8 mph - N/A   Clear
11:37 PM 41.0 °F 37.1 °F 33.8 °F 76% 29.69 in 10.0 mi SSE 5.8 mph - N/A   Clear
11:56 PM 41.0 °F 37.1 °F 33.8 °F 76% 29.69 in 10.0 mi SSE 5.8 mph - N/A   Clear